Time;durP1;ratioP1;P1;durP2;ratioP2;P2;SDS_P1;SDS_P2;PMS_P1;PMS_P2;Temp;Humidity;BMP_temperature;BMP_pressure;BME280_temperature;BME280_humidity;BME280_pressure;Samples;Min_cycle;Max_cycle;Signal;HPM_P1;HPM_P2
2022/12/25 00:02:10;;;;;;;23.67;3.00;;;;;;;;;;5037089;28;20054;-63
2022/12/25 00:04:36;;;;;;;16.45;2.60;;;;;;;;;;5043694;28;20048;-63
2022/12/25 00:07:03;;;;;;;13.80;2.38;;;;;;;;;;5051999;28;20045;-63
2022/12/25 00:09:29;;;;;;;12.80;2.42;;;;;;;;;;5043214;28;20049;-63
2022/12/25 00:11:56;;;;;;;16.80;2.45;;;;;;;;;;5031617;28;20077;-63
2022/12/25 00:14:22;;;;;;;14.35;2.65;;;;;;;;;;5044433;28;20049;-63
2022/12/25 00:16:48;;;;;;;16.77;2.83;;;;;;;;;;5044824;28;20049;-64
2022/12/25 00:19:15;;;;;;;14.60;2.53;;;;;;;;;;5048941;28;20381;-63
2022/12/25 00:21:41;;;;;;;11.68;2.35;;;;;;;;;;5049302;28;20060;-63
2022/12/25 00:24:08;;;;;;;14.75;3.20;;;;;;;;;;5050539;28;20055;-63
2022/12/25 00:26:34;;;;;;;11.10;1.98;;;;;;;;;;5051926;28;20056;-63
2022/12/25 00:29:00;;;;;;;11.38;2.13;;;;;;;;;;5051436;28;20416;-63
2022/12/25 00:31:27;;;;;;;12.55;2.58;;;;;;;;;;5051626;28;20400;-63
2022/12/25 00:33:53;;;;;;;12.88;2.20;;;;;;;;;;5052024;28;20098;-63
2022/12/25 00:36:20;;;;;;;13.63;2.60;;;;;;;;;;5051938;28;20047;-63
2022/12/25 00:38:48;;;;;;;16.08;3.35;;;;;;;;;;5052326;28;20433;-63
2022/12/25 00:42:17;;;;;;;19.15;3.10;;;;;;;;;;5052162;28;20419;-63
2022/12/25 00:44:09;;;;;;;10.70;2.40;;;;;;;;;;5051900;28;20102;-62
2022/12/25 00:46:36;;;;;;;16.63;2.63;;;;;;;;;;5052023;28;20045;-63
2022/12/25 00:49:02;;;;;;;15.52;3.00;;;;;;;;;;5051907;28;20052;-63
2022/12/25 00:51:29;;;;;;;15.77;2.80;;;;;;;;;;5051692;28;20052;-63
2022/12/25 00:53:55;;;;;;;20.98;2.97;;;;;;;;;;5051737;28;20059;-63
2022/12/25 00:56:22;;;;;;;15.23;2.53;;;;;;;;;;5051613;28;20045;-63
2022/12/25 00:58:48;;;;;;;20.33;2.97;;;;;;;;;;5051683;28;20049;-63
2022/12/25 01:01:14;;;;;;;19.42;3.53;;;;;;;;;;5051858;28;20076;-63
2022/12/25 01:03:41;;;;;;;10.98;2.17;;;;;;;;;;5051812;28;20413;-63
2022/12/25 01:06:09;;;;;;;19.42;3.60;;;;;;;;;;5051718;28;20471;-63
2022/12/25 01:08:37;;;;;;;14.82;2.60;;;;;;;;;;5051498;28;20523;-62
2022/12/25 01:11:05;;;;;;;19.10;3.13;;;;;;;;;;5051422;28;20485;-63
2022/12/25 01:13:33;;;;;;;21.17;2.95;;;;;;;;;;5051747;28;20132;-63
2022/12/25 01:16:10;;;;;;;20.70;3.60;;;;;;;;;;5051637;28;20465;-63
2022/12/25 01:18:37;;;;;;;17.35;3.20;;;;;;;;;;5051508;28;20055;-63
2022/12/25 01:21:10;;;;;;;20.60;3.47;;;;;;;;;;5051325;28;20114;-63
2022/12/25 01:23:37;;;;;;;22.92;3.20;;;;;;;;;;5051565;28;20048;-63
2022/12/25 01:26:07;;;;;;;21.35;3.50;;;;;;;;;;5051155;28;20140;-63
2022/12/25 01:28:34;;;;;;;16.73;2.78;;;;;;;;;;5051303;28;20128;-63
2022/12/25 01:31:01;;;;;;;15.63;2.92;;;;;;;;;;5051273;28;20511;-63
2022/12/25 01:33:28;;;;;;;24.20;3.28;;;;;;;;;;5051149;28;20063;-63
2022/12/25 01:35:54;;;;;;;19.55;3.58;;;;;;;;;;5050079;28;20041;-63
2022/12/25 01:38:20;;;;;;;17.17;2.55;;;;;;;;;;5051505;28;20044;-62
2022/12/25 01:40:47;;;;;;;18.95;3.42;;;;;;;;;;5051261;28;20492;-63
2022/12/25 01:43:16;;;;;;;27.05;3.58;;;;;;;;;;5055178;28;20052;-63
2022/12/25 01:45:45;;;;;;;17.05;3.53;;;;;;;;;;5055101;28;20124;-63
2022/12/25 01:48:13;;;;;;;20.85;3.10;;;;;;;;;;5055475;28;20053;-63
2022/12/25 01:50:42;;;;;;;23.80;4.28;;;;;;;;;;5055126;28;20055;-62
2022/12/25 01:53:08;;;;;;;23.45;3.50;;;;;;;;;;5055068;28;20539;-63
2022/12/25 01:55:35;;;;;;;28.15;3.30;;;;;;;;;;5055168;28;20073;-62
2022/12/25 01:58:02;;;;;;;23.48;3.30;;;;;;;;;;5055235;28;20077;-63
2022/12/25 02:00:28;;;;;;;24.08;3.53;;;;;;;;;;5055262;28;20049;-63
2022/12/25 02:02:55;;;;;;;18.92;3.65;;;;;;;;;;5055097;28;20057;-62
2022/12/25 02:05:23;;;;;;;19.42;3.35;;;;;;;;;;5054895;28;20511;-63
2022/12/25 02:07:50;;;;;;;24.08;3.40;;;;;;;;;;5054771;28;20072;-63
2022/12/25 02:10:17;;;;;;;20.65;3.10;;;;;;;;;;5055027;28;20053;-63
2022/12/25 02:12:44;;;;;;;20.42;3.78;;;;;;;;;;5054673;28;20514;-63
2022/12/25 02:15:15;;;;;;;19.48;2.75;;;;;;;;;;5050915;28;20071;-63
2022/12/25 02:17:48;;;;;;;21.13;3.17;;;;;;;;;;5042418;28;20460;-62
2022/12/25 02:20:27;;;;;;;21.42;3.85;;;;;;;;;;5052275;28;20111;-63
2022/12/25 02:23:12;;;;;;;19.38;3.30;;;;;;;;;;5054232;28;20088;-63
2022/12/25 02:25:38;;;;;;;20.65;3.35;;;;;;;;;;5053147;28;20496;-63
2022/12/25 02:28:08;;;;;;;18.52;3.22;;;;;;;;;;5053198;28;20081;-62
2022/12/25 02:30:48;;;;;;;18.25;3.05;;;;;;;;;;5053112;28;20511;-63
2022/12/25 02:36:12;;;;;;;18.88;3.00;;;;;;;;;;5054387;28;20092;-63
2022/12/25 02:39:56;;;;;;;18.83;3.05;;;;;;;;;;5052968;28;20052;-63
2022/12/25 02:41:31;;;;;;;19.00;3.20;;;;;;;;;;5054298;28;20110;-63
2022/12/25 03:11:29;;;;;;;18.75;3.35;;;;;;;;;;5053652;28;19925;-63
2022/12/25 03:11:52;;;;;;;21.27;2.92;;;;;;;;;;5053450;28;20041;-63
2022/12/25 03:17:04;;;;;;;21.67;3.08;;;;;;;;;;5053525;28;20400;-63
2022/12/25 03:27:58;;;;;;;22.38;3.58;;;;;;;;;;5053323;28;20136;-63
2022/12/25 03:33:25;;;;;;;22.48;3.45;;;;;;;;;;5052922;28;20110;-63
2022/12/25 03:36:17;;;;;;;23.02;3.42;;;;;;;;;;5053260;28;20048;-63
2022/12/25 04:36:31;;;;;;;19.85;3.30;;;;;;;;;;5052201;28;20087;-62
2022/12/25 04:38:57;;;;;;;31.45;3.92;;;;;;;;;;5052196;28;20049;-62
2022/12/25 04:41:24;;;;;;;25.60;3.25;;;;;;;;;;5051897;28;20049;-62
2022/12/25 04:43:50;;;;;;;24.17;3.63;;;;;;;;;;5052227;28;20048;-63
2022/12/25 04:46:17;;;;;;;29.50;3.92;;;;;;;;;;5052198;28;20084;-63
2022/12/25 04:48:43;;;;;;;27.40;3.88;;;;;;;;;;5052113;28;20059;-62
2022/12/25 04:51:14;;;;;;;24.88;4.60;;;;;;;;;;5052106;28;20087;-63
2022/12/25 04:53:40;;;;;;;28.70;3.95;;;;;;;;;;5051761;28;20127;-63
2022/12/25 04:56:07;;;;;;;26.60;4.20;;;;;;;;;;5051662;28;20190;-62
2022/12/25 04:58:34;;;;;;;23.00;3.28;;;;;;;;;;5051871;28;20053;-62
2022/12/25 05:01:00;;;;;;;26.73;3.97;;;;;;;;;;5051809;28;20491;-62
2022/12/25 05:03:27;;;;;;;25.42;3.67;;;;;;;;;;5051699;28;20084;-63
2022/12/25 05:05:54;;;;;;;23.88;3.65;;;;;;;;;;5051632;28;20049;-62
2022/12/25 05:08:20;;;;;;;21.77;3.60;;;;;;;;;;5051575;28;20528;-63
2022/12/25 05:10:47;;;;;;;25.13;4.65;;;;;;;;;;5051521;28;20055;-62
2022/12/25 05:13:14;;;;;;;28.85;4.18;;;;;;;;;;5051400;28;20560;-62
2022/12/25 05:15:41;;;;;;;20.85;3.67;;;;;;;;;;5051297;28;20511;-63
2022/12/25 05:18:07;;;;;;;23.57;4.57;;;;;;;;;;5051420;28;20477;-62
2022/12/25 05:20:34;;;;;;;28.02;4.18;;;;;;;;;;5051569;28;20055;-62
2022/12/25 05:23:05;;;;;;;23.17;3.63;;;;;;;;;;5051397;28;20083;-62
2022/12/25 05:25:32;;;;;;;29.70;4.63;;;;;;;;;;5051427;28;20579;-63
2022/12/25 05:27:58;;;;;;;23.70;3.38;;;;;;;;;;5051577;28;20055;-63
2022/12/25 05:30:24;;;;;;;20.50;3.40;;;;;;;;;;5051512;28;20049;-63
2022/12/25 05:32:51;;;;;;;29.38;4.80;;;;;;;;;;5051279;28;20049;-62
2022/12/25 05:35:17;;;;;;;25.20;4.35;;;;;;;;;;5051271;28;20131;-63
2022/12/25 05:37:44;;;;;;;22.90;3.75;;;;;;;;;;5051624;28;20055;-63
2022/12/25 05:40:10;;;;;;;25.50;3.58;;;;;;;;;;5051214;28;20560;-62
2022/12/25 05:42:36;;;;;;;25.00;3.53;;;;;;;;;;5051599;28;20437;-62
2022/12/25 05:45:03;;;;;;;21.48;3.75;;;;;;;;;;5051194;28;20084;-63
2022/12/25 05:47:30;;;;;;;20.42;3.10;;;;;;;;;;5051206;28;20550;-63
2022/12/25 05:49:56;;;;;;;19.52;3.88;;;;;;;;;;5049945;28;20053;-63
2022/12/25 05:52:22;;;;;;;25.92;3.83;;;;;;;;;;5051276;28;20049;-63
2022/12/25 05:54:49;;;;;;;20.17;3.33;;;;;;;;;;5051458;28;20559;-63
2022/12/25 05:57:15;;;;;;;26.42;4.65;;;;;;;;;;5051356;28;20128;-62
2022/12/25 05:59:41;;;;;;;27.75;3.58;;;;;;;;;;5051076;28;20049;-63
2022/12/25 06:02:08;;;;;;;20.58;3.28;;;;;;;;;;5051302;28;20049;-63
2022/12/25 06:04:34;;;;;;;22.17;3.47;;;;;;;;;;5050901;28;20064;-63
2022/12/25 06:07:01;;;;;;;24.20;4.28;;;;;;;;;;5051014;28;20059;-62
2022/12/25 06:09:27;;;;;;;28.23;4.10;;;;;;;;;;5051213;28;20048;-63
2022/12/25 06:11:53;;;;;;;26.70;3.53;;;;;;;;;;5050862;28;20059;-63
2022/12/25 06:14:20;;;;;;;21.48;3.70;;;;;;;;;;5049911;28;20053;-62
2022/12/25 06:16:49;;;;;;;20.63;3.70;;;;;;;;;;5050969;28;20040;-63
2022/12/25 06:19:16;;;;;;;15.85;3.45;;;;;;;;;;5049927;28;20076;-63
2022/12/25 06:21:42;;;;;;;16.58;2.92;;;;;;;;;;5050868;28;20045;-62
2022/12/25 06:24:08;;;;;;;25.98;4.13;;;;;;;;;;5050871;28;20536;-63
2022/12/25 06:26:37;;;;;;;24.67;3.92;;;;;;;;;;5051104;28;20055;-63
2022/12/25 06:29:04;;;;;;;26.92;4.40;;;;;;;;;;5054180;28;20049;-63
2022/12/25 06:31:30;;;;;;;22.30;3.67;;;;;;;;;;5054161;28;20124;-62
2022/12/25 06:33:57;;;;;;;29.02;4.00;;;;;;;;;;5054263;28;20049;-63
2022/12/25 06:36:24;;;;;;;21.42;3.58;;;;;;;;;;5054332;28;20131;-62
2022/12/25 06:38:51;;;;;;;18.55;4.38;;;;;;;;;;5053116;28;20140;-63
2022/12/25 06:41:20;;;;;;;15.90;3.55;;;;;;;;;;5054252;28;20055;-63
2022/12/25 06:43:48;;;;;;;19.80;3.38;;;;;;;;;;5054187;28;20053;-62
2022/12/25 06:46:14;;;;;;;21.80;4.20;;;;;;;;;;5053858;28;20147;-63
2022/12/25 06:48:46;;;;;;;20.60;3.95;;;;;;;;;;5054060;28;20087;-62
2022/12/25 06:51:13;;;;;;;19.58;4.13;;;;;;;;;;5054401;28;20476;-62
2022/12/25 06:53:39;;;;;;;17.17;4.22;;;;;;;;;;5052565;28;20055;-63
2022/12/25 06:56:17;;;;;;;23.10;4.57;;;;;;;;;;5054124;28;20178;-62
2022/12/25 06:58:47;;;;;;;19.67;4.40;;;;;;;;;;5053828;28;20415;-63
2022/12/25 07:01:18;;;;;;;29.55;5.07;;;;;;;;;;5054081;28;20048;-63
2022/12/25 07:03:46;;;;;;;23.75;4.72;;;;;;;;;;5053718;28;20061;-63
2022/12/25 07:06:12;;;;;;;22.08;3.85;;;;;;;;;;5053154;28;20139;-62
2022/12/25 07:08:39;;;;;;;21.92;5.00;;;;;;;;;;5053659;28;20544;-64
2022/12/25 07:11:05;;;;;;;28.10;4.90;;;;;;;;;;5053474;28;20135;-62
2022/12/25 07:13:32;;;;;;;24.85;4.32;;;;;;;;;;5039771;28;20420;-63
2022/12/25 07:15:59;;;;;;;17.15;3.45;;;;;;;;;;5032384;28;20053;-63
2022/12/25 07:18:26;;;;;;;24.33;4.88;;;;;;;;;;5050332;28;20519;-64
2022/12/25 07:20:54;;;;;;;25.55;4.82;;;;;;;;;;5048353;28;20055;-64
2022/12/25 07:23:21;;;;;;;22.63;4.22;;;;;;;;;;5043423;28;20102;-63
2022/12/25 07:25:54;;;;;;;22.13;4.28;;;;;;;;;;5053608;28;20473;-63
2022/12/25 07:28:21;;;;;;;18.65;3.40;;;;;;;;;;5053595;28;20059;-64
2022/12/25 07:30:47;;;;;;;16.80;3.47;;;;;;;;;;5053594;28;20132;-64
2022/12/25 07:33:14;;;;;;;20.05;3.60;;;;;;;;;;5053042;28;20085;-64
2022/12/25 07:35:40;;;;;;;16.02;3.33;;;;;;;;;;5050344;28;20055;-64
2022/12/25 07:38:07;;;;;;;19.55;3.63;;;;;;;;;;5050636;28;20045;-64
2022/12/25 07:40:33;;;;;;;17.80;4.03;;;;;;;;;;5052475;28;20152;-63
2022/12/25 07:42:59;;;;;;;17.67;3.35;;;;;;;;;;5053248;28;20049;-64
2022/12/25 07:45:26;;;;;;;21.05;4.82;;;;;;;;;;5052931;28;20044;-63
2022/12/25 07:47:52;;;;;;;22.98;4.10;;;;;;;;;;5053090;28;20053;-64
2022/12/25 07:50:20;;;;;;;;;;;;;;;;;;5041631;28;20546;-64
2022/12/25 07:52:47;;;;;;;22.38;4.03;;;;;;;;;;5050245;28;19982;-65
2022/12/25 07:55:13;;;;;;;20.58;3.75;;;;;;;;;;5052553;28;20049;-63
2022/12/25 07:57:39;;;;;;;28.35;4.70;;;;;;;;;;5044461;28;20076;-63
2022/12/25 08:00:06;;;;;;;22.73;4.05;;;;;;;;;;5032477;28;20046;-62
2022/12/25 08:02:32;;;;;;;21.33;4.38;;;;;;;;;;5049997;28;20053;-62
2022/12/25 08:04:59;;;;;;;18.38;4.55;;;;;;;;;;5046799;28;20524;-63
2022/12/25 08:07:26;;;;;;;24.92;5.07;;;;;;;;;;5033035;28;20045;-63
2022/12/25 08:09:52;;;;;;;21.35;4.80;;;;;;;;;;5041247;28;20049;-64
2022/12/25 08:12:19;;;;;;;23.42;4.38;;;;;;;;;;5052291;28;20514;-64
2022/12/25 08:14:45;;;;;;;19.75;4.50;;;;;;;;;;5052700;28;20087;-64
2022/12/25 08:17:11;;;;;;;22.05;4.60;;;;;;;;;;5052411;28;20055;-64
2022/12/25 08:19:38;;;;;;;22.77;4.25;;;;;;;;;;5052202;28;20040;-65
2022/12/25 08:22:04;;;;;;;24.23;4.50;;;;;;;;;;5050888;28;20076;-63
2022/12/25 08:24:31;;;;;;;21.02;4.68;;;;;;;;;;5046368;28;20114;-64
2022/12/25 08:26:57;;;;;;;23.00;4.25;;;;;;;;;;5052192;28;20124;-63
2022/12/25 08:29:24;;;;;;;20.77;4.22;;;;;;;;;;5043534;28;20059;-64
2022/12/25 08:31:50;;;;;;;20.90;5.07;;;;;;;;;;5036908;28;20061;-63
2022/12/25 08:34:18;;;;;;;24.08;5.65;;;;;;;;;;5051540;28;20059;-64
2022/12/25 08:36:44;;;;;;;18.20;4.03;;;;;;;;;;5051974;28;20075;-64
2022/12/25 08:39:11;;;;;;;20.35;4.60;;;;;;;;;;5046510;28;20048;-64
2022/12/25 08:41:37;;;;;;;18.42;4.13;;;;;;;;;;5041176;28;20139;-64
2022/12/25 08:44:04;;;;;;;15.13;3.60;;;;;;;;;;5047227;28;20049;-63
2022/12/25 08:46:30;;;;;;;15.60;3.60;;;;;;;;;;5042121;28;20045;-66
2022/12/25 08:48:57;;;;;;;14.88;3.05;;;;;;;;;;5050727;28;20508;-66
2022/12/25 08:51:24;;;;;;;13.65;3.03;;;;;;;;;;5051586;28;20084;-66
2022/12/25 08:53:52;;;;;;;9.00;2.30;;;;;;;;;;5050384;28;20076;-66
2022/12/25 08:56:18;;;;;;;14.60;2.92;;;;;;;;;;5045717;28;20073;-65
2022/12/25 08:58:45;;;;;;;13.60;2.60;;;;;;;;;;5043586;28;20045;-64
2022/12/25 09:01:12;;;;;;;12.05;2.17;;;;;;;;;;5048100;28;20052;-64
2022/12/25 09:03:38;;;;;;;17.83;2.53;;;;;;;;;;5050310;28;20045;-65
2022/12/25 09:06:09;;;;;;;8.23;2.10;;;;;;;;;;5050269;28;20060;-65
2022/12/25 09:08:36;;;;;;;9.63;2.17;;;;;;;;;;5044061;28;20052;-65
2022/12/25 09:11:12;;;;;;;10.35;2.15;;;;;;;;;;5034134;28;20075;-66
2022/12/25 09:13:39;;;;;;;;;;;;;;;;;;5050480;28;20144;-65
2022/12/25 09:16:06;;;;;;;8.25;2.20;;;;;;;;;;5050101;28;19927;-64
2022/12/25 09:18:33;;;;;;;7.93;1.77;;;;;;;;;;5051831;28;20052;-65
2022/12/25 09:21:00;;;;;;;11.35;2.65;;;;;;;;;;5051628;28;20083;-66
2022/12/25 09:23:27;;;;;;;14.80;3.30;;;;;;;;;;5050243;28;20063;-62
2022/12/25 09:25:53;;;;;;;17.77;3.25;;;;;;;;;;5051788;28;20055;-62
2022/12/25 09:28:20;;;;;;;15.93;3.00;;;;;;;;;;5051492;28;20056;-65
2022/12/25 09:30:50;;;;;;;19.05;3.58;;;;;;;;;;5051285;28;20554;-65
2022/12/25 09:33:17;;;;;;;18.25;3.53;;;;;;;;;;5051235;28;20052;-66
2022/12/25 09:35:51;;;;;;;21.05;3.83;;;;;;;;;;5051683;28;20041;-65
2022/12/25 09:38:17;;;;;;;16.73;3.42;;;;;;;;;;5044688;28;20382;-64
2022/12/25 09:40:43;;;;;;;21.40;3.47;;;;;;;;;;5034016;28;20052;-63
2022/12/25 09:43:14;;;;;;;19.10;4.00;;;;;;;;;;5036561;28;20683;-65
2022/12/25 09:45:41;;;;;;;16.08;3.45;;;;;;;;;;5037092;28;20136;-65
2022/12/25 09:48:11;;;;;;;12.73;4.07;;;;;;;;;;5051494;28;20052;-64
2022/12/25 09:50:43;;;;;;;27.65;4.43;;;;;;;;;;5039574;28;20052;-64
2022/12/25 09:53:19;;;;;;;24.65;3.58;;;;;;;;;;5043184;28;20132;-64
2022/12/25 09:55:55;;;;;;;18.90;3.42;;;;;;;;;;5030187;28;20042;-63
2022/12/25 09:58:22;;;;;;;17.65;3.53;;;;;;;;;;5040306;28;20544;-63
2022/12/25 10:00:53;;;;;;;16.15;3.58;;;;;;;;;;5040948;28;20045;-64
2022/12/25 10:03:22;;;;;;;28.95;4.63;;;;;;;;;;5043487;28;20059;-65
2022/12/25 10:06:08;;;;;;;18.33;3.65;;;;;;;;;;5041079;28;20575;-66
2022/12/25 10:08:42;;;;;;;18.33;4.07;;;;;;;;;;5041991;28;20132;-64
2022/12/25 10:11:20;;;;;;;17.48;3.72;;;;;;;;;;5042323;28;20080;-66
2022/12/25 10:13:59;;;;;;;21.02;4.32;;;;;;;;;;5054945;28;20057;-69
2022/12/25 10:16:25;;;;;;;20.50;3.75;;;;;;;;;;5052538;28;20131;-62
2022/12/25 10:18:56;;;;;;;14.30;3.70;;;;;;;;;;5041879;28;20045;-66
2022/12/25 10:21:23;;;;;;;20.95;3.85;;;;;;;;;;5054693;28;20072;-67
2022/12/25 10:24:09;;;;;;;16.30;3.60;;;;;;;;;;5053468;28;20155;-64
2022/12/25 10:26:36;;;;;;;12.90;3.15;;;;;;;;;;5053797;28;20152;-64
2022/12/25 10:29:02;;;;;;;16.60;3.55;;;;;;;;;;5054754;28;20049;-63
2022/12/25 10:31:29;;;;;;;16.30;3.50;;;;;;;;;;5054111;28;20576;-63
2022/12/25 10:33:56;;;;;;;14.73;3.42;;;;;;;;;;5054606;28;20132;-63
2022/12/25 10:36:24;;;;;;;17.55;3.45;;;;;;;;;;5054288;28;20055;-63
2022/12/25 10:38:51;;;;;;;16.42;3.15;;;;;;;;;;5054625;28;20103;-65
2022/12/25 10:41:20;;;;;;;21.88;4.45;;;;;;;;;;5054363;28;20118;-63
2022/12/25 10:43:51;;;;;;;16.85;3.75;;;;;;;;;;5053196;28;20048;-65
2022/12/25 10:46:18;;;;;;;11.80;2.55;;;;;;;;;;5041064;28;20136;-63
2022/12/25 10:48:50;;;;;;;18.88;3.22;;;;;;;;;;5048157;28;20061;-66
2022/12/25 10:51:33;;;;;;;15.85;3.13;;;;;;;;;;5054286;28;20048;-65
2022/12/25 10:54:00;;;;;;;13.88;2.47;;;;;;;;;;5053789;28;20053;-67
2022/12/25 10:56:27;;;;;;;14.20;3.25;;;;;;;;;;5053950;28;20525;-66
2022/12/25 10:59:04;;;;;;;10.25;2.67;;;;;;;;;;5052645;28;20055;-66
2022/12/25 11:01:30;;;;;;;16.50;2.83;;;;;;;;;;5054232;28;20063;-63
2022/12/25 11:03:57;;;;;;;9.25;2.50;;;;;;;;;;5044736;28;20063;-64
2022/12/25 11:06:25;;;;;;;13.18;2.53;;;;;;;;;;5043568;28;20122;-63
2022/12/25 11:08:56;;;;;;;13.15;2.47;;;;;;;;;;5045362;28;20041;-63
2022/12/25 11:11:22;;;;;;;14.60;3.08;;;;;;;;;;5042426;28;20448;-63
2022/12/25 11:14:00;;;;;;;12.18;2.30;;;;;;;;;;5053096;28;20041;-64
2022/12/25 11:16:39;;;;;;;15.88;2.55;;;;;;;;;;5053648;28;20041;-63
2022/12/25 11:19:21;;;;;;;15.13;2.20;;;;;;;;;;5046209;28;20105;-63
2022/12/25 11:21:51;;;;;;;10.48;2.05;;;;;;;;;;5052094;28;20049;-62
2022/12/25 11:24:19;;;;;;;9.35;1.80;;;;;;;;;;5048287;28;20048;-63
2022/12/25 11:26:47;;;;;;;12.77;2.42;;;;;;;;;;5053018;28;20057;-63
2022/12/25 11:29:29;;;;;;;13.02;1.90;;;;;;;;;;5053289;28;20064;-63
2022/12/25 11:31:57;;;;;;;9.05;1.80;;;;;;;;;;5053260;28;20132;-63
2022/12/25 11:34:23;;;;;;;9.45;1.80;;;;;;;;;;5052051;28;20426;-63
2022/12/25 11:36:51;;;;;;;13.73;2.22;;;;;;;;;;5047700;28;20196;-64
2022/12/25 11:39:23;;;;;;;10.15;2.28;;;;;;;;;;5041065;28;20107;-63
2022/12/25 11:41:52;;;;;;;10.13;1.98;;;;;;;;;;5037989;28;20076;-64
2022/12/25 11:44:31;;;;;;;11.25;2.10;;;;;;;;;;5048561;28;20057;-63
2022/12/25 11:47:02;;;;;;;10.85;2.25;;;;;;;;;;5053058;28;20480;-64
2022/12/25 11:49:29;;;;;;;14.25;2.35;;;;;;;;;;5052900;28;20049;-65
2022/12/25 11:51:56;;;;;;;11.13;2.03;;;;;;;;;;5051543;28;20492;-65
2022/12/25 11:54:22;;;;;;;11.52;2.03;;;;;;;;;;5052883;28;20059;-64
2022/12/25 11:56:49;;;;;;;12.75;2.42;;;;;;;;;;5052160;28;20140;-64
2022/12/25 11:59:31;;;;;;;10.18;2.28;;;;;;;;;;5036034;28;20103;-64
2022/12/25 12:02:20;;;;;;;15.35;3.05;;;;;;;;;;5050330;28;20045;-64
2022/12/25 12:04:49;;;;;;;11.63;2.30;;;;;;;;;;5048642;28;20496;-64
2022/12/25 12:07:30;;;;;;;3.85;1.10;;;;;;;;;;5052483;28;20564;-64
2022/12/25 12:09:57;;;;;;;3.42;2.20;;;;;;;;;;5052674;28;20471;-64
2022/12/25 12:12:42;;;;;;;3.78;1.77;;;;;;;;;;5051766;28;20501;-63
2022/12/25 12:15:36;;;;;;;5.68;2.13;;;;;;;;;;5045487;28;20404;-64
2022/12/25 12:18:17;;;;;;;4.57;1.67;;;;;;;;;;5051999;28;20132;-66
2022/12/25 12:20:44;;;;;;;3.47;1.80;;;;;;;;;;5051307;28;20045;-62
2022/12/25 12:23:15;;;;;;;3.13;1.15;;;;;;;;;;5052205;28;20131;-66
2022/12/25 12:25:43;;;;;;;3.97;0.80;;;;;;;;;;5050440;28;20037;-65
2022/12/25 12:28:12;;;;;;;4.45;2.47;;;;;;;;;;5052521;28;20076;-65
2022/12/25 12:30:39;;;;;;;5.28;2.85;;;;;;;;;;5052099;28;20523;-65
2022/12/25 12:33:06;;;;;;;3.90;2.70;;;;;;;;;;5046053;28;20058;-66
2022/12/25 12:35:35;;;;;;;3.30;1.40;;;;;;;;;;5043909;28;20095;-66
2022/12/25 12:38:07;;;;;;;2.67;1.27;;;;;;;;;;5051979;28;20075;-64
2022/12/25 12:40:37;;;;;;;2.88;1.70;;;;;;;;;;5052133;28;20052;-66
2022/12/25 12:43:05;;;;;;;1.63;1.00;;;;;;;;;;5039618;28;20045;-66
2022/12/25 12:45:33;;;;;;;1.73;0.50;;;;;;;;;;5046070;28;20412;-65
2022/12/25 12:48:00;;;;;;;1.48;0.93;;;;;;;;;;5052133;28;20057;-64
2022/12/25 12:50:26;;;;;;;3.15;1.10;;;;;;;;;;5031699;28;20111;-66
2022/12/25 12:52:53;;;;;;;6.47;2.35;;;;;;;;;;5046743;28;20051;-64
2022/12/25 12:55:29;;;;;;;12.93;5.68;;;;;;;;;;5036040;28;20045;-63
2022/12/25 12:57:57;;;;;;;11.52;5.35;;;;;;;;;;5052057;28;20099;-63
2022/12/25 13:00:24;;;;;;;11.38;4.70;;;;;;;;;;5050399;28;20045;-64
2022/12/25 13:02:53;;;;;;;5.07;2.63;;;;;;;;;;5048119;28;20128;-63
2022/12/25 13:05:30;;;;;;;3.45;2.40;;;;;;;;;;5050922;28;20060;-62
2022/12/25 13:08:00;;;;;;;13.60;8.95;;;;;;;;;;5051079;28;20115;-63
2022/12/25 13:10:37;;;;;;;4.47;2.85;;;;;;;;;;5051239;28;20132;-63
2022/12/25 13:13:20;;;;;;;2.13;1.80;;;;;;;;;;5050945;28;20052;-63
2022/12/25 13:15:48;;;;;;;2.65;1.20;;;;;;;;;;5049168;28;20127;-62
2022/12/25 13:18:15;;;;;;;2.60;1.58;;;;;;;;;;5051152;28;20095;-63
2022/12/25 13:20:59;;;;;;;2.40;1.17;;;;;;;;;;5038441;28;20061;-63
2022/12/25 13:23:27;;;;;;;5.00;1.48;;;;;;;;;;5049699;28;20049;-63
2022/12/25 13:25:55;;;;;;;2.35;1.63;;;;;;;;;;5050906;28;20478;-63
2022/12/25 13:28:29;;;;;;;4.30;1.55;;;;;;;;;;5050824;28;20053;-62
2022/12/25 13:31:06;;;;;;;5.63;1.00;;;;;;;;;;5039444;28;20064;-63
2022/12/25 13:33:32;;;;;;;2.63;0.90;;;;;;;;;;5049154;28;20063;-65
2022/12/25 13:35:59;;;;;;;2.50;1.00;;;;;;;;;;5050955;28;20297;-65
2022/12/25 13:38:27;;;;;;;3.00;1.10;;;;;;;;;;5053669;28;20112;-62
2022/12/25 13:43:41;;;;;;;1.15;0.70;;;;;;;;;;5042234;28;20049;-63
2022/12/25 13:46:07;;;;;;;;;;;;;;;;;;5055493;28;20127;-64
2022/12/25 13:48:33;;;;;;;2.47;0.57;;;;;;;;;;5045319;28;19979;-63
2022/12/25 13:51:00;;;;;;;1.27;0.50;;;;;;;;;;5034489;28;20456;-63
2022/12/25 13:53:27;;;;;;;1.60;0.70;;;;;;;;;;5046991;28;20072;-64
2022/12/25 13:55:54;;;;;;;4.13;1.08;;;;;;;;;;5054709;28;20451;-64
2022/12/25 13:58:26;;;;;;;2.75;1.08;;;;;;;;;;5048274;28;20099;-64
2022/12/25 14:00:54;;;;;;;3.05;0.93;;;;;;;;;;5045662;28;20045;-65
2022/12/25 14:03:22;;;;;;;3.90;1.45;;;;;;;;;;5053419;28;20053;-66
2022/12/25 14:05:56;;;;;;;2.22;1.02;;;;;;;;;;5054533;28;20080;-65
2022/12/25 14:08:24;;;;;;;4.68;0.88;;;;;;;;;;5053123;28;20049;-66
2022/12/25 14:10:51;;;;;;;2.72;0.90;;;;;;;;;;5054722;28;20076;-66
2022/12/25 14:13:19;;;;;;;3.40;1.00;;;;;;;;;;5046378;28;20045;-64
2022/12/25 14:15:49;;;;;;;3.65;1.45;;;;;;;;;;5042459;28;20058;-64
2022/12/25 14:18:17;;;;;;;4.47;1.48;;;;;;;;;;5048161;28;20157;-63
2022/12/25 14:21:03;;;;;;;4.93;1.15;;;;;;;;;;5053033;28;20480;-63
2022/12/25 14:23:38;;;;;;;4.93;1.48;;;;;;;;;;5053891;28;20140;-65
2022/12/25 14:26:04;;;;;;;3.45;1.30;;;;;;;;;;5054280;28;20127;-64
2022/12/25 14:28:33;;;;;;;3.75;1.08;;;;;;;;;;5053951;28;20554;-64
2022/12/25 14:31:00;;;;;;;2.97;1.20;;;;;;;;;;5054114;28;20053;-64
2022/12/25 14:33:30;;;;;;;5.95;1.20;;;;;;;;;;5053760;28;20061;-65
2022/12/25 14:35:57;;;;;;;4.30;1.42;;;;;;;;;;5049872;28;20570;-65
2022/12/25 14:38:28;;;;;;;3.45;1.55;;;;;;;;;;5039437;28;20123;-64
2022/12/25 14:40:58;;;;;;;3.97;1.67;;;;;;;;;;5053800;28;20404;-64
2022/12/25 14:43:26;;;;;;;6.85;1.80;;;;;;;;;;5046145;28;20443;-63
2022/12/25 14:45:56;;;;;;;8.38;2.38;;;;;;;;;;5053592;28;20103;-65
2022/12/25 14:48:29;;;;;;;7.28;2.28;;;;;;;;;;5038439;28;20056;-64
2022/12/25 14:50:59;;;;;;;7.78;2.22;;;;;;;;;;5053896;28;20049;-64
2022/12/25 14:53:35;;;;;;;6.78;2.20;;;;;;;;;;5053467;28;20059;-64
2022/12/25 14:56:01;;;;;;;8.65;2.33;;;;;;;;;;5053921;28;20088;-64
2022/12/25 14:58:30;;;;;;;5.35;1.63;;;;;;;;;;5053305;28;20137;-64
2022/12/25 15:00:57;;;;;;;4.22;1.85;;;;;;;;;;5053588;28;20096;-64
2022/12/25 15:03:44;;;;;;;5.22;1.92;;;;;;;;;;5052043;28;20489;-64
2022/12/25 15:06:18;;;;;;;6.25;1.90;;;;;;;;;;5052761;28;20496;-63
2022/12/25 15:09:14;;;;;;;8.35;1.92;;;;;;;;;;5040596;28;20045;-64
2022/12/25 15:11:40;;;;;;;5.05;1.60;;;;;;;;;;5044658;28;20056;-64
2022/12/25 15:14:07;;;;;;;6.32;1.83;;;;;;;;;;5049692;28;20128;-64
2022/12/25 15:16:38;;;;;;;7.35;2.10;;;;;;;;;;5053164;28;20127;-64
2022/12/25 15:19:06;;;;;;;7.22;1.88;;;;;;;;;;5053285;28;20056;-63
2022/12/25 15:21:33;;;;;;;5.28;1.90;;;;;;;;;;5052882;28;20052;-63
2022/12/25 15:23:59;;;;;;;5.95;1.70;;;;;;;;;;5039321;28;20045;-62
2022/12/25 15:26:27;;;;;;;6.20;1.50;;;;;;;;;;5052898;28;20089;-63
2022/12/25 15:28:53;;;;;;;;;;;;;;;;;;5051964;28;20132;-63
2022/12/25 15:31:27;;;;;;;5.15;1.38;;;;;;;;;;5052755;28;19925;-64
2022/12/25 15:33:55;;;;;;;5.28;1.75;;;;;;;;;;5043022;28;20135;-63
2022/12/25 15:36:22;;;;;;;7.15;1.88;;;;;;;;;;5042882;28;20049;-64
2022/12/25 15:38:49;;;;;;;9.07;1.40;;;;;;;;;;5039285;28;20049;-64
2022/12/25 15:44:06;;;;;;;8.00;1.98;;;;;;;;;;5040855;28;20564;-67
2022/12/25 15:46:33;;;;;;;9.75;2.40;;;;;;;;;;5045908;28;20105;-63
2022/12/25 15:49:00;;;;;;;8.23;2.33;;;;;;;;;;5042185;28;20056;-66
2022/12/25 15:51:26;;;;;;;9.27;2.45;;;;;;;;;;5051101;28;20095;-66
2022/12/25 15:53:52;;;;;;;10.45;2.22;;;;;;;;;;5051292;28;20079;-66
2022/12/25 15:56:19;;;;;;;11.10;2.40;;;;;;;;;;5049395;28;20144;-64
2022/12/25 15:58:46;;;;;;;8.88;2.13;;;;;;;;;;5035599;28;20141;-65
2022/12/25 16:01:14;;;;;;;8.57;1.85;;;;;;;;;;5042853;28;20045;-63
2022/12/25 16:03:41;;;;;;;8.60;2.20;;;;;;;;;;5046252;28;20091;-64
2022/12/25 16:06:11;;;;;;;9.73;2.43;;;;;;;;;;5037007;28;20045;-64
2022/12/25 16:08:38;;;;;;;13.15;3.10;;;;;;;;;;5045616;28;20045;-63
2022/12/25 16:11:04;;;;;;;11.82;2.58;;;;;;;;;;5045316;28;20554;-64
2022/12/25 16:13:31;;;;;;;9.30;2.83;;;;;;;;;;5039819;28;20084;-65
2022/12/25 16:15:57;;;;;;;9.93;2.83;;;;;;;;;;5050038;28;20041;-64
2022/12/25 16:18:24;;;;;;;11.38;3.15;;;;;;;;;;5051959;28;20278;-65
2022/12/25 16:20:56;;;;;;;16.05;3.63;;;;;;;;;;5089803;27;1435703;-64
2022/12/25 16:23:23;;;;;;;12.15;3.38;;;;;;;;;;5112933;28;20047;-64
2022/12/25 16:25:49;;;;;;;14.10;3.40;;;;;;;;;;5119291;28;20059;-63
2022/12/25 16:28:15;;;;;;;18.35;4.00;;;;;;;;;;5114220;28;20047;-63
2022/12/25 16:30:42;;;;;;;10.65;3.38;;;;;;;;;;5117769;28;20050;-63
2022/12/25 16:33:09;;;;;;;11.23;3.78;;;;;;;;;;5108899;28;20383;-63